Site contains unofficial IBTrACS data. Visit the IBTrACS Website to access archived data.

1860 NOT_NAMED (1860042S17057)


IBTrACS version v04r00. Visit IBTrACS website for data access.
Please direct all questions to the IBTrACS Q and A forum

Storm track - Intensity - Wind Radii - Intensity Data - Source Data - All data

Summary Information

Storm ID 1860042S17057
Start Feb 11 06Z
End Feb 17 06Z
ATCF IDs
Track status Best track data.

Storm track plot

Map of storm track

Intensity plots

No Intensity information for this storm


Radial wind information

No radial wind information for this storm


Position and Intensity Table

BASIN ISO_TIME_________ NATURE LAT LON
degrees north degrees east
SI 1860-02-11 06:00:00 NR -17.00 57.20
SI 09:00:00 NR -17.23 56.88
SI 12:00:00 NR -17.47 56.56
SI 15:00:00 NR -17.70 56.24
SI 18:00:00 NR -17.92 55.93
SI 21:00:00 NR -18.13 55.63
SI 1860-02-12 00:00:00 NR -18.33 55.34
SI 03:00:00 NR -18.52 55.06
SI 06:00:00 NR -18.70 54.80
SI 09:00:00 NR -18.86 54.56
SI 12:00:00 NR -19.02 54.33
SI 15:00:00 NR -19.18 54.12
SI 18:00:00 NR -19.35 53.92
SI 21:00:00 NR -19.55 53.73
SI 1860-02-13 00:00:00 NR -19.79 53.55
SI 03:00:00 NR -20.07 53.37
SI 06:00:00 NR -20.40 53.20
SI 09:00:00 NR -20.84 52.98
SI 12:00:00 NR -21.33 52.75
SI 15:00:00 NR -21.87 52.53
SI 18:00:00 NR -22.43 52.33
SI 21:00:00 NR -23.01 52.14
SI 1860-02-14 00:00:00 NR -23.59 51.99
SI 03:00:00 NR -24.16 51.87
SI 06:00:00 NR -24.70 51.80
SI 09:00:00 NR -25.19 51.79
SI 12:00:00 NR -25.66 51.82
SI 15:00:00 NR -26.11 51.89
SI 18:00:00 NR -26.54 51.99
SI 21:00:00 NR -26.95 52.12
SI 1860-02-15 00:00:00 NR -27.33 52.27
SI 03:00:00 NR -27.68 52.43
SI 06:00:00 NR -28.00 52.60
SI 09:00:00 NR -28.30 52.74
SI 12:00:00 NR -28.57 52.89
SI 15:00:00 NR -28.81 53.05
SI 18:00:00 NR -29.03 53.22
SI 21:00:00 NR -29.22 53.39
SI 1860-02-16 00:00:00 NR -29.40 53.56
SI 03:00:00 NR -29.56 53.73
SI 06:00:00 NR -29.70 53.90
SI 09:00:00 NR -29.83 54.06
SI 12:00:00 NR -29.96 54.22
SI 15:00:00 NR -30.08 54.37
SI 18:00:00 NR -30.19 54.52
SI 21:00:00 NR -30.30 54.67
SI 1860-02-17 00:00:00 NR -30.40 54.81
SI 03:00:00 NR -30.50 54.96
SI 06:00:00 NR -30.60 55.10

Source Information

Agency Information
USA
TOKYO
CMA
HKO
NEWDELHI
REUNION WMO-Best-Tracks.txt:Line=257:xxxx860039
BOM
NADI
WELLINGTON
DS824
TD9636
TD9635
NEUMANN
MLC

All available IBTrACS Data

SEASON BASIN SUBBASIN ISO_TIME_________ NATURE LAT LON WMO AGENCY DIST2LAND LANDFALL IFLAG USA SSHS REUNION LAT REUNION LON REUNION TYPE REUNION TNUM STORM SPEED STORM DIR
Year degrees north degrees east km km 1 degrees north degrees east 1 kts degrees
1860 SI MM 1860-02-11 06:00:00 NR -17.00 57.20 reunion 348 328 _____O________ -1 -17.00 57.20 99 9.90 8 233
1860 SI MM 09:00:00 NR -17.23 56.88 330 305 _____P________ -1 -17.23 56.88 99 8 233
1860 SI MM 12:00:00 NR -17.47 56.56 305 296 _____P________ -1 -17.47 56.56 99 8 233
1860 SI MM 15:00:00 NR -17.70 56.24 301 291 _____P________ -1 -17.70 56.24 99 8 233
1860 SI MM 18:00:00 NR -17.92 55.93 298 288 _____P________ -1 -17.92 55.93 99 7 233
1860 SI MM 21:00:00 NR -18.13 55.63 299 291 _____P________ -1 -18.13 55.63 99 7 234
1860 SI MM 1860-02-12 00:00:00 NR -18.33 55.34 302 279 _____P________ -1 -18.33 55.34 99 7 234
1860 SI MM 03:00:00 NR -18.52 55.06 280 260 _____P________ -1 -18.52 55.06 99 6 234
1860 SI MM 06:00:00 NR -18.70 54.80 reunion 262 246 _____O________ -1 -18.70 54.80 99 9.90 6 235
1860 SI MM 09:00:00 NR -18.86 54.56 246 242 _____P________ -1 -18.86 54.56 99 5 234
1860 SI MM 12:00:00 NR -19.02 54.33 246 231 _____P________ -1 -19.02 54.33 99 5 232
1860 SI MM 15:00:00 NR -19.18 54.12 237 233 _____P________ -1 -19.18 54.12 99 5 229
1860 SI MM 18:00:00 NR -19.35 53.92 231 229 _____P________ -1 -19.35 53.92 99 5 224
1860 SI MM 21:00:00 NR -19.55 53.73 228 221 _____P________ -1 -19.55 53.73 99 6 219
1860 SI MM 1860-02-13 00:00:00 NR -19.79 53.55 229 222 _____P________ -1 -19.79 53.55 99 6 213
1860 SI MM 03:00:00 NR -20.07 53.37 218 216 _____P________ -1 -20.07 53.37 99 7 208
1860 SI MM 06:00:00 NR -20.40 53.20 reunion 222 218 _____O________ -1 -20.40 53.20 99 9.90 9 206
1860 SI MM 09:00:00 NR -20.84 52.98 230 229 _____P________ -1 -20.84 52.98 99 10 204
1860 SI MM 12:00:00 NR -21.33 52.75 249 249 _____P________ -1 -21.33 52.75 99 11 202
1860 SI MM 15:00:00 NR -21.87 52.53 293 293 _____P________ -1 -21.87 52.53 99 12 200
1860 SI MM 18:00:00 NR -22.43 52.33 332 332 _____P________ -1 -22.43 52.33 99 12 197
1860 SI MM 21:00:00 NR -23.01 52.14 380 380 _____P________ -1 -23.01 52.14 99 12 195
1860 SI MM 1860-02-14 00:00:00 NR -23.59 51.99 425 425 _____P________ -1 -23.59 51.99 99 12 192
1860 SI MM 03:00:00 NR -24.16 51.87 436 428 _____P________ -1 -24.16 51.87 99 11 189
1860 SI MM 06:00:00 NR -24.70 51.80 reunion 440 440 _____O________ -1 -24.70 51.80 99 9.90 10 184
1860 SI MM 09:00:00 NR -25.19 51.79 454 454 _____P________ -1 -25.19 51.79 99 10 179
1860 SI MM 12:00:00 NR -25.66 51.82 472 472 _____P________ -1 -25.66 51.82 99 9 174
1860 SI MM 15:00:00 NR -26.11 51.89 495 495 _____P________ -1 -26.11 51.89 99 9 170
1860 SI MM 18:00:00 NR -26.54 51.99 518 518 _____P________ -1 -26.54 51.99 99 9 166
1860 SI MM 21:00:00 NR -26.95 52.12 546 546 _____P________ -1 -26.95 52.12 99 8 162
1860 SI MM 1860-02-15 00:00:00 NR -27.33 52.27 578 578 _____P________ -1 -27.33 52.27 99 8 159
1860 SI MM 03:00:00 NR -27.68 52.43 607 607 _____P________ -1 -27.68 52.43 99 7 157
1860 SI MM 06:00:00 NR -28.00 52.60 reunion 641 641 _____O________ -1 -28.00 52.60 99 9.90 7 156
1860 SI MM 09:00:00 NR -28.30 52.74 666 666 _____P________ -1 -28.30 52.74 99 6 156
1860 SI MM 12:00:00 NR -28.57 52.89 701 701 _____P________ -1 -28.57 52.89 99 6 152
1860 SI MM 15:00:00 NR -28.81 53.05 730 730 _____P________ -1 -28.81 53.05 99 5 148
1860 SI MM 18:00:00 NR -29.03 53.22 750 750 _____P________ -1 -29.03 53.22 99 5 144
1860 SI MM 21:00:00 NR -29.22 53.39 779 779 _____P________ -1 -29.22 53.39 99 5 141
1860 SI MM 1860-02-16 00:00:00 NR -29.40 53.56 808 808 _____P________ -1 -29.40 53.56 99 4 138
1860 SI MM 03:00:00 NR -29.56 53.73 829 829 _____P________ -1 -29.56 53.73 99 4 136
1860 SI MM 06:00:00 NR -29.70 53.90 reunion 851 851 _____O________ -1 -29.70 53.90 99 9.90 4 134
1860 SI MM 09:00:00 NR -29.83 54.06 873 873 _____P________ -1 -29.83 54.06 99 4 133
1860 SI MM 12:00:00 NR -29.96 54.22 894 894 _____P________ -1 -29.96 54.22 99 4 132
1860 SI MM 15:00:00 NR -30.08 54.37 916 916 _____P________ -1 -30.08 54.37 99 3 131
1860 SI MM 18:00:00 NR -30.19 54.52 931 931 _____P________ -1 -30.19 54.52 99 3 130
1860 SI MM 21:00:00 NR -30.30 54.67 953 953 _____P________ -1 -30.30 54.67 99 3 130
1860 SI MM 1860-02-17 00:00:00 NR -30.40 54.81 967 967 _____P________ -1 -30.40 54.81 99 3 130
1860 SI MM 03:00:00 NR -30.50 54.96 989 989 _____P________ -1 -30.50 54.96 99 3 129
1860 SI MM 06:00:00 NR -30.60 55.10 reunion 1003 _____O________ -1 -30.60 55.10 99 9.90 3 129